Aviation Digital Data Service (ADDS)

Output produced by METARs form (2131 UTC 17 July 2018)
found at http://www.aviationweather.gov/adds/metars/
 
METAR text: RJAA 172100Z 18003KT 9000 FEW015 BKN/// 26/25 Q1011 NOSIG RMK 1CU015 A2985
Conditions at: RJAA (NARITA INTL , JP) observed 2100 UTC 17 July 2018
Temperature: 26.0°C (79°F)
Dewpoint: 25.0°C (77°F) [RH = 94%]
Pressure (altimeter): 29.85 inches Hg (1011.0 mb)
Winds: from the S (180 degrees) at 3 MPH (3 knots; 1.6 m/s)
Visibility: 6 miles (9 km)
Ceiling: at least 12,000 feet AGL
Clouds: few clouds at 1500 feet AGL
Weather: no significant weather observed at this time

Forecast for: RJAA (NARITA INTL , JP)
Text: TAF AMD RJAA 172038Z 1720/1900 22006KT 9999 FEW015 SCT030
Forecast period: 2000 UTC 17 July 2018 to 0000 UTC 19 July 2018
Forecast type: FROM: standard forecast or significant change
Winds: from the SW (220 degrees) at 7 MPH (6 knots; 3.1 m/s)
Visibility: 6 or more miles (10+ km)
Clouds: few clouds at 1500 feet AGL
scattered clouds at 3000 feet AGL
Weather: no significant weather forecast for this period